Аэропорт: Хомутово. Южно-Сахалинск

ICAO: UHSS

METAR:
2021-10-23 02:30:00
UHSS 230230Z 18003MPS 140V240 9999 NSC 09/M03 Q1015 R19/70D NOSIG RMK QFE760/1013
METAR:
2021-10-22 23:00:00
TAF UHSS 222300Z 2300/2406 26003MPS 9999 NSC